Flight Track Log - Related Links

Times and Time Zones

All times are in EDT time to prevent confusion due to time zone crossing. See the SAS617 flight status page for this flight to view local times or setup timezone preferences in your user account.

Time Position Orientation Groundspeed Altitude Reporting Facility
EDT Latitude Longitude Course Direction KTS MPH feet Rate Location/Type
Thu 12:29:33 PM 55.5988 12.6136 209° Southwest 142 163 700  Level FlightAware ADS-B
Thu 12:29:53 PM 55.5884 12.5975 221° Southwest 160 184 1,600 2,108 Climbing FlightAware ADS-B
Thu 12:30:10 PM 55.5780 12.5820 220° Southwest 187 215 2,000 1,622 Climbing FlightAware ADS-B
Thu 12:30:30 PM 55.5635 12.5608 220° Southwest 221 254 2,600 1,833 Climbing FlightAware ADS-B
Thu 12:30:46 PM 55.5505 12.5430 218° Southwest 246 283 3,100 2,333 Climbing FlightAware ADS-B
Thu 12:31:06 PM 55.5297 12.5165 216° Southwest 266 306 4,000 3,000 Climbing FlightAware ADS-B
Thu 12:31:24 PM 55.5119 12.4944 215° Southwest 274 315 5,000 3,529 Climbing FlightAware ADS-B
Thu 12:31:40 PM 55.4945 12.4725 215° Southwest 280 322 6,000 3,294 Climbing FlightAware ADS-B
Thu 12:32:15 PM 55.4577 12.4253 216° Southwest 298 343 7,800 3,117 Climbing FlightAware ADS-B
Thu 12:32:57 PM 55.4108 12.3648 216° Southwest 314 361 10,000 3,205 Climbing FlightAware ADS-B
Thu 12:33:28 PM 55.3740 12.3178 216° Southwest 321 369 11,700 3,333 Climbing FlightAware ADS-B
Thu 12:34:00 PM 55.3331 12.2658 216° Southwest 324 373 13,500 3,000 Climbing FlightAware ADS-B
Thu 12:34:30 PM 55.2961 12.2189 216° Southwest 335 386 14,800 2,636 Climbing FlightAware ADS-B
Thu 12:35:06 PM 55.2518 12.1628 216° Southwest 347 399 16,400 2,545 Climbing FlightAware ADS-B
Thu 12:35:36 PM 55.2109 12.1114 216° Southwest 355 409 17,600 2,656 Climbing FlightAware ADS-B
Thu 12:36:07 PM 55.1711 12.0615 216° Southwest 354 407 19,100 2,581 Climbing FlightAware ADS-B
Thu 12:37:02 PM 55.0965 11.9673 216° Southwest 362 417 21,300 2,259 Climbing FlightAware ADS-B
Thu 12:37:32 PM 55.0553 11.9154 216° Southwest 369 425 22,300 2,063 Climbing FlightAware ADS-B
Thu 12:38:06 PM 55.0130 11.8627 216° Southwest 371 427 23,500 1,781 Climbing FlightAware ADS-B
Thu 12:38:36 PM 54.9660 11.8045 215° Southwest 381 438 24,200 1,600 Climbing FlightAware ADS-B
Thu 12:39:21 PM 54.9018 11.7254 215° Southwest 384 442 25,500 1,714 Climbing FlightAware ADS-B
Thu 12:39:53 PM 54.8562 11.6696 215° Southwest 388 447 26,400 1,440 Climbing FlightAware ADS-B
Thu 12:40:36 PM 54.7897 11.5880 215° Southwest 399 459 27,300 1,315 Climbing FlightAware ADS-B
Thu 12:41:06 PM 54.7479 11.5311 218° Southwest 402 463 28,000 1,216 Climbing FlightAware ADS-B
Thu 12:41:50 PM 54.6843 11.4389 220° Southwest 412 474 28,800 1,297 Climbing FlightAware ADS-B
Thu 12:42:20 PM 54.6382 11.3745 219° Southwest 413 475 29,600 1,610 Climbing FlightAware ADS-B
Thu 12:43:12 PM 54.5629 11.2709 219° Southwest 409 471 31,000 1,590 Climbing FlightAware ADS-B
Thu 12:43:43 PM 54.5163 11.2071 218° Southwest 408 470 31,800 1,452 Climbing FlightAware ADS-B
Thu 12:44:14 PM 54.4737 11.1490 218° Southwest 406 467 32,500 1,478 Climbing FlightAware ADS-B
Thu 12:44:52 PM 54.4164 11.0708 218° Southwest 401 461 33,500 1,615 Climbing FlightAware ADS-B
Thu 12:45:32 PM 54.3617 10.9967 218° Southwest 396 456 34,600 1,606 Climbing FlightAware ADS-B
Thu 12:46:03 PM 54.3144 10.9329 218° Southwest 390 449 35,400 1,377 Climbing FlightAware ADS-B
Thu 12:46:33 PM 54.2791 10.8850 218° Southwest 387 445 36,000 1,011 Climbing FlightAware ADS-B
Thu 12:47:38 PM 54.1834 10.7563 218° Southwest 383 441 37,000 571 Climbing FlightAware ADS-B
Thu 12:48:18 PM 54.1283 10.6824 218° Southwest 382 440 37,000  Level FlightAware ADS-B
Thu 12:48:52 PM 54.0782 10.6157 218° Southwest 386 444 37,000  Level FlightAware ADS-B
Thu 12:49:32 PM 54.0219 10.5410 218° Southwest 388 447 37,000  Level FlightAware ADS-B
Thu 12:50:02 PM 53.9843 10.4911 218° Southwest 388 447 37,000  Level FlightAware ADS-B
Thu 12:50:50 PM 53.9120 10.3960 218° Southwest 388 447 37,000  Level FlightAware ADS-B
Thu 12:51:12 PM 53.9018 10.3816 220° Southwest 389 448 37,000  Level FlightAware ADS-B
Thu 12:51:46 PM 53.8330 10.2910 218° Southwest 389 448 37,000  Level FlightAware ADS-B
Thu 12:52:12 PM 53.7980 10.2460 217° Southwest 389 448 37,000  Level FlightAware ADS-B
Thu 12:52:53 PM 53.7380 10.1670 218° Southwest 390 449 37,000  Level FlightAware ADS-B
Thu 12:53:37 PM 53.6760 10.0860 218° Southwest 391 450 37,000  Level FlightAware ADS-B
Thu 12:54:14 PM 53.6250 10.0200 218° Southwest 392 451 37,000  Level FlightAware ADS-B
Thu 12:55:18 PM 53.5278 9.8945 218° Southwest 393 452 37,000  Level FlightAware ADS-B
Thu 12:55:52 PM 53.4790 9.8319 217° Southwest 395 455 37,000  Level FlightAware ADS-B
Thu 12:56:45 PM 53.4030 9.7350 217° Southwest 395 455 37,000  Level FlightAware ADS-B
Thu 12:57:55 PM 53.3044 9.6088 217° Southwest 395 455 37,000  Level FlightAware ADS-B
Thu 12:58:26 PM 53.2581 9.5503 217° Southwest 394 453 37,000  Level FlightAware ADS-B
Thu 12:59:05 PM 53.2006 9.4776 217° Southwest 397 457 37,000  Level FlightAware ADS-B
Thu 01:00:28 PM 53.0883 9.3364 217° Southwest 398 458 37,000  Level FlightAware ADS-B
Thu 01:01:11 PM 53.0147 9.2445 217° Southwest 401 461 37,000  Level FlightAware ADS-B
Thu 01:01:55 PM 52.9629 9.1799 217° Southwest 403 464 37,000  Level FlightAware ADS-B
Thu 01:02:32 PM 52.9045 9.1073 217° Southwest 402 463 37,000  Level FlightAware ADS-B
Thu 01:03:55 PM 52.7730 8.9447 217° Southwest 404 465 37,000  Level FlightAware ADS-B
Thu 01:04:35 PM 52.7101 8.8678 217° Southwest 404 465 37,000  Level FlightAware ADS-B
Thu 01:05:07 PM 52.6625 8.8093 217° Southwest 404 465 37,000  Level FlightAware ADS-B
Thu 01:05:51 PM 52.6030 8.7364 217° Southwest 405 466 37,000  Level FlightAware ADS-B
Thu 01:06:25 PM 52.5469 8.6681 217° Southwest 406 467 37,000  Level FlightAware ADS-B
Thu 01:06:56 PM 52.5058 8.6185 216° Southwest 406 467 37,000  Level FlightAware ADS-B
Thu 01:07:37 PM 52.4385 8.5372 216° Southwest 406 467 37,000  Level FlightAware ADS-B
Thu 01:08:11 PM 52.3863 8.4739 217° Southwest 408 470 37,000  Level FlightAware ADS-B
Thu 01:08:41 PM 52.3425 8.4212 216° Southwest 411 473 37,000  Level FlightAware ADS-B
Thu 01:09:13 PM 52.2920 8.3609 216° Southwest 409 471 37,000  Level FlightAware ADS-B
Thu 01:09:44 PM 52.2440 8.3037 216° Southwest 409 471 37,000  Level FlightAware ADS-B
Thu 01:10:15 PM 52.2014 8.2529 216° Southwest 409 471 37,000  Level FlightAware ADS-B
Thu 01:10:48 PM 52.1507 8.1926 216° Southwest 409 471 37,000  Level FlightAware ADS-B
Thu 01:11:19 PM 52.0996 8.1319 216° Southwest 406 467 37,000  Level FlightAware ADS-B
Thu 01:11:59 PM 52.0410 8.0628 216° Southwest 409 471 37,000  Level FlightAware ADS-B
Thu 01:12:29 PM 51.9948 8.0082 216° Southwest 408 470 37,000  Level FlightAware ADS-B
Thu 01:12:59 PM 51.9479 7.9532 216° Southwest 407 468 37,000  Level FlightAware ADS-B
Thu 01:13:30 PM 51.9014 7.8989 216° Southwest 409 471 37,000  Level FlightAware ADS-B
Thu 01:14:10 PM 51.8399 7.8268 216° Southwest 411 473 37,000  Level FlightAware ADS-B
Thu 01:14:43 PM 51.7902 7.7689 216° Southwest 411 473 37,000  Level FlightAware ADS-B
Thu 01:15:14 PM 51.7462 7.7180 216° Southwest 411 473 37,000  Level FlightAware ADS-B
Thu 01:15:46 PM 51.6905 7.6534 216° Southwest 411 473 37,000  Level FlightAware ADS-B
Thu 01:16:17 PM 51.6450 7.6006 216° Southwest 411 473 37,000  Level FlightAware ADS-B
Thu 01:16:49 PM 51.5962 7.5446 216° Southwest 413 475 37,000  Level FlightAware ADS-B
Thu 01:17:19 PM 51.5471 7.4881 216° Southwest 412 474 37,000  Level FlightAware ADS-B
Thu 01:17:50 PM 51.5020 7.4365 215° Southwest 412 474 37,000  Level FlightAware ADS-B
Thu 01:18:20 PM 51.4560 7.3840 215° Southwest 410 472 37,000  Level FlightAware ADS-B
Thu 01:19:22 PM 51.3519 7.2654 215° Southwest 411 473 37,000  Level FlightAware ADS-B (EDKL)
Thu 01:19:52 PM 51.3062 7.2137 215° Southwest 410 472 37,000  Level FlightAware ADS-B (EDKL)
Thu 01:20:23 PM 51.2620 7.1636 215° Southwest 412 474 37,000  Level FlightAware ADS-B (EDKL)
Thu 01:20:53 PM 51.2121 7.1072 215° Southwest 412 474 37,000  Level FlightAware ADS-B (EDKL)
Thu 01:21:23 PM 51.1669 7.0564 215° Southwest 413 475 37,000  Level FlightAware ADS-B (EDKL)
Thu 01:21:53 PM 51.1176 7.0010 215° Southwest 416 479 37,000  Level FlightAware ADS-B (EDKL)
Thu 01:22:24 PM 51.0749 6.9530 215° Southwest 420 483 37,000  Level FlightAware ADS-B (EDKL)
Thu 01:23:02 PM 51.0082 6.8794 215° Southwest 427 491 37,000  Level FlightAware ADS-B (EDKL)
Thu 01:23:32 PM 50.9517 6.8456 201° Southwest 445 512 37,000  Level FlightAware ADS-B (EDKL)
Thu 01:24:14 PM 50.8790 6.8140 195° South 446 513 37,000  Level FlightAware ADS-B (EDKL)
Thu 01:24:51 PM 50.8023 6.7797 196° South 447 514 37,000  Level FlightAware ADS-B (EDKL)
Thu 01:25:23 PM 50.7312 6.7483 196° South 448 516 37,000  Level FlightAware ADS-B (EDKL)
Thu 01:26:25 PM 50.5996 6.7357 183° South 467 537 37,000  Level FlightAware ADS-B (EDKL)
Thu 01:27:53 PM 50.4084 6.7327 181° South 474 545 37,000  Level FlightAware ADS-B (EDKL)
Thu 01:28:46 PM 50.3060 6.7314 180° South 473 544 37,000  Level FlightAware ADS-B
Thu 01:30:10 PM 50.1190 6.7290 180° South 475 547 37,000  Level FlightAware ADS-B
Thu 01:30:36 PM 50.0650 6.7280 181° South 474 545 37,000  Level FlightAware ADS-B
Thu 01:31:10 PM 49.9860 6.7270 180° South 475 547 37,000 -85 Level FlightAware ADS-B
Thu 01:31:47 PM 49.9050 6.7260 180° South 473 544 36,900 -500 Descending FlightAware ADS-B
Thu 01:32:22 PM 49.8330 6.7260 180° South 458 527 36,400 -973 Descending FlightAware ADS-B
Thu 01:33:01 PM 49.7460 6.7250 180° South 451 519 35,700 -944 Descending FlightAware ADS-B
Thu 01:34:10 PM 49.6050 6.7210 181° South 446 513 34,700 -919 Descending FlightAware ADS-B
Thu 01:34:52 PM 49.5170 6.7170 182° South 449 517 34,000 -940 Descending FlightAware ADS-B
Thu 01:35:33 PM 49.4360 6.7140 181° South 448 516 33,400 -789 Descending FlightAware ADS-B
Thu 01:36:08 PM 49.3590 6.7120 181° South 450 518 33,000 -358 Descending FlightAware ADS-B
Thu 01:36:40 PM 49.2920 6.7100 181° South 453 521 33,000  Level FlightAware ADS-B
Thu 01:37:23 PM 49.2010 6.7070 181° South 454 522 33,000  Level FlightAware ADS-B
Thu 01:38:30 PM 49.0620 6.7020 181° South 456 525 33,000  Level FlightAware ADS-B
Thu 01:39:05 PM 48.9880 6.7000 181° South 457 526 33,000  Level FlightAware ADS-B
Thu 01:39:47 PM 48.8990 6.6980 181° South 458 527 33,000  Level FlightAware ADS-B
Thu 01:40:25 PM 48.8210 6.6950 181° South 458 527 33,000  Level FlightAware ADS-B
Thu 01:41:08 PM 48.7280 6.6920 181° South 460 529 33,000  Level FlightAware ADS-B
Thu 01:41:49 PM 48.6390 6.6900 181° South 462 532 33,000  Level FlightAware ADS-B
Thu 01:42:41 PM 48.5320 6.6860 181° South 464 534 33,000  Level FlightAware ADS-B
Thu 01:43:07 PM 48.4740 6.6850 181° South 465 535 33,000  Level FlightAware ADS-B
Thu 01:43:49 PM 48.3860 6.6820 181° South 466 536 33,000  Level FlightAware ADS-B
Thu 01:44:20 PM 48.3200 6.6800 181° South 466 536 33,000  Level FlightAware ADS-B
Thu 01:44:55 PM 48.2410 6.6780 181° South 465 535 33,000  Level FlightAware ADS-B
Thu 01:45:41 PM 48.1430 6.6750 181° South 464 534 33,000  Level FlightAware ADS-B
Thu 01:46:11 PM 48.0760 6.6730 181° South 464 534 33,000  Level FlightAware ADS-B
Thu 01:46:49 PM 48.0010 6.6710 181° South 465 535 33,000  Level FlightAware ADS-B
Thu 01:47:23 PM 47.9240 6.6680 181° South 466 536 33,000  Level FlightAware ADS-B
Thu 01:48:09 PM 47.8270 6.6650 181° South 468 539 33,000 -231 Level FlightAware ADS-B
Thu 01:48:41 PM 47.7570 6.6630 181° South 469 540 32,700 -1,583 Descending FlightAware ADS-B
Thu 01:49:21 PM 47.6720 6.6620 180° South 470 541 31,100 -2,118 Descending FlightAware ADS-B
Thu 01:50:40 PM 47.5020 6.6560 181° South 439 505 28,500 -1,932 Descending FlightAware ADS-B
Thu 01:51:19 PM 47.4260 6.6530 182° South 423 487 27,300 -1,846 Descending FlightAware ADS-B
Thu 01:51:58 PM 47.3540 6.6510 181° South 412 474 26,100 -2,100 Descending FlightAware ADS-B
Thu 01:52:59 PM 47.2400 6.6470 181° South 398 458 23,800 -1,824 Descending FlightAware ADS-B
Thu 01:53:40 PM 47.1780 6.6010 207° Southwest 384 442 23,000 -1,317 Descending FlightAware ADS-B
Thu 01:54:21 PM 47.1180 6.5400 215° Southwest 382 440 22,000 -1,895 Descending FlightAware ADS-B
Thu 01:54:56 PM 47.0530 6.5280 187° South 380 437 20,600 -2,215 Descending FlightAware ADS-B
Thu 01:55:26 PM 47.0000 6.5210 185° South 373 429 19,600 -1,935 Descending FlightAware ADS-B
Thu 01:55:58 PM 46.9450 6.5130 186° South 365 420 18,600 -2,418 Descending FlightAware ADS-B
Thu 01:56:33 PM 46.8870 6.5050 185° South 360 414 16,900 -4,235 Descending FlightAware ADS-B
Thu 01:57:06 PM 46.8320 6.4980 185° South 372 428 13,800 -5,463 Descending FlightAware ADS-B
Thu 01:57:40 PM 46.7720 6.4890 186° South 371 427 10,800 -4,261 Descending FlightAware ADS-B
Thu 01:58:15 PM 46.7180 6.4670 196° South 333 383 8,900 -2,476 Descending FlightAware ADS-B
Thu 01:58:43 PM 46.6790 6.4480 198° South 290 334 8,200 -771 Descending FlightAware ADS-B
Thu 01:59:25 PM 46.6310 6.4240 199° South 253 291 8,000 -741 Descending FlightAware ADS-B
Thu 02:00:04 PM 46.5920 6.4050 199° South 247 284 7,200 -1,083 Descending FlightAware ADS-B
Thu 02:00:37 PM 46.5550 6.3890 197° South 247 284 6,700 -456 Descending FlightAware ADS-B
Thu 02:01:23 PM 46.5030 6.3640 198° South 249 287 6,600 -357 Descending FlightAware ADS-B
Thu 02:02:01 PM 46.4620 6.3450 198° South 232 267 6,200 -794 Descending FlightAware ADS-B
Thu 02:02:31 PM 46.4320 6.3310 198° South 224 258 5,700 -1,083 Descending FlightAware ADS-B
Thu 02:03:13 PM 46.3910 6.3110 199° South 218 251 4,900 -1,135 Descending FlightAware ADS-B
Thu 02:03:45 PM 46.3640 6.2930 205° Southwest 215 247 4,300 -1,219 Descending FlightAware ADS-B
Thu 02:04:17 PM 46.3410 6.2600 225° Southwest 201 231 3,600 -1,100 Descending FlightAware ADS-B
Thu 02:04:45 PM 46.3250 6.2370 225° Southwest 179 206 3,200 -900 Descending FlightAware ADS-B
Thu 02:05:17 PM 46.3070 6.2100 226° Southwest 156 180 2,700 -909 Descending FlightAware ADS-B
Thu 02:05:51 PM 46.2910 6.1870 225° Southwest 148 170 2,200 -771 Descending FlightAware ADS-B
Thu 02:06:27 PM 46.2740 6.1620 225° Southwest 134 154 1,800 -774 Descending FlightAware ADS-B
Thu 02:06:53 PM 46.2630 6.1450 227° Southwest 137 158 1,400 -636 Descending FlightAware ADS-B
Thu 02:07:33 PM 46.2440 6.1180 225° Southwest 131 151 1,100 -450 Descending FlightAware ADS-B

Login

Don't have an account? Register now (free) for customized features, flight alerts, and more!